aviador You're here:

YPAD Decoded Metar

ADELAIDE in AUSTRALIA
Report Time2017-09-24 01:00:00
UTC Time2017-09-24 01:19:39
Flight Rules mvfr MVFR
Wind260° at 18 kt
W.Decomp.*RWY 23: 16.7 kt HW 6.7 kt RCW
RWY 30: 12.0 kt HW 13.4 kt LCW
W.Rank260° ranks 21
Current wind is above 260° avg. (10.5)
Visibility5000 m
Phenomena:Light Shower Rain
Vicinity showers
Clouds:Scattered 020 Hf
Scattered 030 Hf
Broken 038 Hf
Expected CloudBase > 800 ft AGL from Temp-Dew spread
Ceiling3,800 ft
Temp13°C (ISA -2)
Dew Point11°C (88% RH)
AAT6.9°C
QNH1005 hPa
Density Alt226 ft
Elevation13 ft
Report Wrong Elevation
Raw Report
YPAD 240100Z 26018KT 5000 VCSH SCT020 SCT030 BKN038 13/11 Q1005
FM0100 29020KT 9999 -SHRA SCT030=

Extra information for YPAD:More info

Metar Taf Metar & Taf Last 4 Metars F.Rules Stats Wind Profile Meteogram Temp Stats Airport Information Weather charts Add Link Nearby VenuesMetar ALERT Operation Metar Decoded Social comments

Adelaide Airport Webcam